sensor_id;sensor_type;location;lat;lon;timestamp;pressure;altitude;pressure_sealevel;temperature;humidity
54666;BME280;40566;50.006;36.180;2022-07-29T00:03:47;100016.53;;;19.44;68.17
54666;BME280;40566;50.006;36.180;2022-07-29T00:08:47;100022.69;;;19.42;68.17
54666;BME280;40566;50.006;36.180;2022-07-29T00:13:48;100016.91;;;19.37;68.36
54666;BME280;40566;50.006;36.180;2022-07-29T00:18:49;100017.16;;;19.33;68.43
54666;BME280;40566;50.006;36.180;2022-07-29T00:23:49;100012.09;;;19.30;68.50
54666;BME280;40566;50.006;36.180;2022-07-29T00:28:50;100021.09;;;19.26;68.61
54666;BME280;40566;50.006;36.180;2022-07-29T00:33:50;100023.81;;;19.24;68.63
54666;BME280;40566;50.006;36.180;2022-07-29T00:38:51;100022.31;;;19.20;68.65
54666;BME280;40566;50.006;36.180;2022-07-29T00:43:51;100017.59;;;19.11;68.92
54666;BME280;40566;50.006;36.180;2022-07-29T00:48:52;100023.03;;;19.08;69.07
54666;BME280;40566;50.006;36.180;2022-07-29T00:53:53;100013.75;;;19.02;69.05
54666;BME280;40566;50.006;36.180;2022-07-29T00:58:55;100011.28;;;18.99;69.33
54666;BME280;40566;50.006;36.180;2022-07-29T01:03:56;100022.88;;;18.95;69.21
54666;BME280;40566;50.006;36.180;2022-07-29T01:08:57;100035.41;;;18.90;69.30
54666;BME280;40566;50.006;36.180;2022-07-29T01:13:59;100034.75;;;18.86;69.44
54666;BME280;40566;50.006;36.180;2022-07-29T01:19:09;100034.66;;;18.88;69.23
54666;BME280;40566;50.006;36.180;2022-07-29T01:29:39;100032.56;;;18.78;69.60
54666;BME280;40566;50.006;36.180;2022-07-29T01:39:58;100038.31;;;18.69;69.90
54666;BME280;40566;50.006;36.180;2022-07-29T01:45:12;100036.13;;;18.61;69.76
54666;BME280;40566;50.006;36.180;2022-07-29T01:50:16;100042.31;;;18.60;70.13
54666;BME280;40566;50.006;36.180;2022-07-29T01:55:20;100045.84;;;18.59;69.84
54666;BME280;40566;50.006;36.180;2022-07-29T02:00:23;100045.44;;;18.51;69.91
54666;BME280;40566;50.006;36.180;2022-07-29T02:05:25;100044.66;;;18.49;70.28
54666;BME280;40566;50.006;36.180;2022-07-29T02:10:29;100038.00;;;18.43;70.08
54666;BME280;40566;50.006;36.180;2022-07-29T02:15:32;100040.81;;;18.40;70.40
54666;BME280;40566;50.006;36.180;2022-07-29T02:20:33;100042.56;;;18.40;70.49
54666;BME280;40566;50.006;36.180;2022-07-29T02:25:34;100045.53;;;18.34;70.44
54666;BME280;40566;50.006;36.180;2022-07-29T02:30:40;100047.44;;;18.30;70.51
54666;BME280;40566;50.006;36.180;2022-07-29T02:35:43;100049.41;;;18.27;70.73
54666;BME280;40566;50.006;36.180;2022-07-29T02:40:45;100060.88;;;18.24;70.85
54666;BME280;40566;50.006;36.180;2022-07-29T02:45:48;100056.41;;;18.26;70.74
54666;BME280;40566;50.006;36.180;2022-07-29T02:50:57;100064.34;;;18.24;70.76
54666;BME280;40566;50.006;36.180;2022-07-29T02:56:05;100064.19;;;18.28;70.64
54666;BME280;40566;50.006;36.180;2022-07-29T03:01:14;100069.16;;;18.16;70.86
54666;BME280;40566;50.006;36.180;2022-07-29T03:06:17;100061.91;;;18.21;70.83
54666;BME280;40566;50.006;36.180;2022-07-29T03:11:18;100067.91;;;18.23;70.95
54666;BME280;40566;50.006;36.180;2022-07-29T03:16:19;100078.66;;;18.35;70.83
54666;BME280;40566;50.006;36.180;2022-07-29T03:21:21;100070.44;;;18.41;70.73
54666;BME280;40566;50.006;36.180;2022-07-29T03:26:21;100073.56;;;18.48;70.77
54666;BME280;40566;50.006;36.180;2022-07-29T03:31:22;100078.56;;;18.52;70.77
54666;BME280;40566;50.006;36.180;2022-07-29T03:36:23;100081.94;;;18.54;70.85
54666;BME280;40566;50.006;36.180;2022-07-29T03:41:25;100091.22;;;18.60;70.68
54666;BME280;40566;50.006;36.180;2022-07-29T03:46:26;100079.56;;;18.66;70.68
54666;BME280;40566;50.006;36.180;2022-07-29T03:51:29;100086.06;;;18.74;70.58
54666;BME280;40566;50.006;36.180;2022-07-29T03:56:32;100081.81;;;18.72;70.70
54666;BME280;40566;50.006;36.180;2022-07-29T04:01:36;100087.75;;;18.75;70.75
54666;BME280;40566;50.006;36.180;2022-07-29T04:06:42;100088.38;;;18.80;70.79
54666;BME280;40566;50.006;36.180;2022-07-29T04:11:43;100078.66;;;18.82;70.83
54666;BME280;40566;50.006;36.180;2022-07-29T04:16:45;100088.78;;;18.89;70.44
54666;BME280;40566;50.006;36.180;2022-07-29T04:21:46;100096.97;;;18.98;70.41
54666;BME280;40566;50.006;36.180;2022-07-29T04:26:46;100100.16;;;19.03;70.34
54666;BME280;40566;50.006;36.180;2022-07-29T04:31:47;100101.59;;;19.09;70.44
54666;BME280;40566;50.006;36.180;2022-07-29T04:36:48;100104.63;;;19.17;70.31
54666;BME280;40566;50.006;36.180;2022-07-29T04:41:49;100101.22;;;19.31;70.09
54666;BME280;40566;50.006;36.180;2022-07-29T04:46:50;100104.88;;;19.43;70.04
54666;BME280;40566;50.006;36.180;2022-07-29T04:51:51;100103.50;;;19.52;70.04
54666;BME280;40566;50.006;36.180;2022-07-29T04:56:51;100102.09;;;19.60;69.89
54666;BME280;40566;50.006;36.180;2022-07-29T05:01:52;100105.22;;;19.67;69.74
54666;BME280;40566;50.006;36.180;2022-07-29T05:06:53;100096.78;;;19.76;69.56
54666;BME280;40566;50.006;36.180;2022-07-29T05:11:53;100102.69;;;19.94;69.31
54666;BME280;40566;50.006;36.180;2022-07-29T05:16:54;100103.66;;;20.08;68.96
54666;BME280;40566;50.006;36.180;2022-07-29T05:21:57;100107.22;;;20.21;68.80
54666;BME280;40566;50.006;36.180;2022-07-29T05:26:57;100113.09;;;20.39;68.49
54666;BME280;40566;50.006;36.180;2022-07-29T05:31:58;100111.47;;;20.51;68.41
54666;BME280;40566;50.006;36.180;2022-07-29T05:36:59;100104.16;;;20.56;68.46
54666;BME280;40566;50.006;36.180;2022-07-29T05:41:59;100106.69;;;20.72;68.02
54666;BME280;40566;50.006;36.180;2022-07-29T05:47:00;100107.69;;;20.84;67.90
54666;BME280;40566;50.006;36.180;2022-07-29T05:52:00;100105.81;;;20.98;67.82
54666;BME280;40566;50.006;36.180;2022-07-29T05:57:02;100113.63;;;21.13;67.16
54666;BME280;40566;50.006;36.180;2022-07-29T06:02:03;100101.47;;;21.25;67.20
54666;BME280;40566;50.006;36.180;2022-07-29T06:07:05;100108.44;;;21.38;67.04
54666;BME280;40566;50.006;36.180;2022-07-29T06:12:06;100102.41;;;21.51;66.66
54666;BME280;40566;50.006;36.180;2022-07-29T06:17:07;100101.97;;;21.57;66.56
54666;BME280;40566;50.006;36.180;2022-07-29T06:22:07;100097.03;;;21.65;66.29
54666;BME280;40566;50.006;36.180;2022-07-29T06:27:08;100097.00;;;21.78;65.89
54666;BME280;40566;50.006;36.180;2022-07-29T06:32:09;100093.84;;;21.86;65.56
54666;BME280;40566;50.006;36.180;2022-07-29T06:37:10;100099.22;;;21.97;65.28
54666;BME280;40566;50.006;36.180;2022-07-29T06:42:11;100103.97;;;22.05;65.00
54666;BME280;40566;50.006;36.180;2022-07-29T06:47:11;100097.50;;;22.22;64.42
54666;BME280;40566;50.006;36.180;2022-07-29T06:52:12;100101.81;;;22.23;64.00
54666;BME280;40566;50.006;36.180;2022-07-29T06:57:13;100099.41;;;22.32;63.72
54666;BME280;40566;50.006;36.180;2022-07-29T07:02:14;100098.63;;;22.43;63.28
54666;BME280;40566;50.006;36.180;2022-07-29T07:07:14;100092.81;;;22.51;62.66
54666;BME280;40566;50.006;36.180;2022-07-29T07:12:15;100092.78;;;22.64;62.21
54666;BME280;40566;50.006;36.180;2022-07-29T07:17:16;100095.97;;;22.80;61.23
54666;BME280;40566;50.006;36.180;2022-07-29T07:22:16;100097.22;;;22.87;61.02
54666;BME280;40566;50.006;36.180;2022-07-29T07:27:17;100089.06;;;22.90;60.51
54666;BME280;40566;50.006;36.180;2022-07-29T07:32:17;100096.19;;;23.01;59.85
54666;BME280;40566;50.006;36.180;2022-07-29T07:37:18;100108.72;;;23.10;59.48
54666;BME280;40566;50.006;36.180;2022-07-29T07:42:20;100108.88;;;23.20;59.01
54666;BME280;40566;50.006;36.180;2022-07-29T07:47:21;100108.91;;;23.31;58.65
54666;BME280;40566;50.006;36.180;2022-07-29T07:52:23;100103.84;;;23.17;58.92
54666;BME280;40566;50.006;36.180;2022-07-29T07:57:24;100117.72;;;23.08;58.83
54666;BME280;40566;50.006;36.180;2022-07-29T08:02:25;100108.09;;;23.31;57.74
54666;BME280;40566;50.006;36.180;2022-07-29T08:07:25;100115.91;;;23.44;57.28
54666;BME280;40566;50.006;36.180;2022-07-29T08:12:26;100099.25;;;23.54;57.17
54666;BME280;40566;50.006;36.180;2022-07-29T08:17:27;100095.78;;;23.54;56.82
54666;BME280;40566;50.006;36.180;2022-07-29T08:22:28;100099.00;;;23.58;56.55
54666;BME280;40566;50.006;36.180;2022-07-29T08:27:29;100102.50;;;23.69;55.61
54666;BME280;40566;50.006;36.180;2022-07-29T08:32:31;100102.19;;;23.85;54.81
54666;BME280;40566;50.006;36.180;2022-07-29T08:37:31;100109.31;;;23.96;54.34
54666;BME280;40566;50.006;36.180;2022-07-29T08:42:32;100105.94;;;24.05;54.08
54666;BME280;40566;50.006;36.180;2022-07-29T08:47:33;100104.75;;;24.09;53.36
54666;BME280;40566;50.006;36.180;2022-07-29T08:52:37;100106.53;;;24.20;53.10
54666;BME280;40566;50.006;36.180;2022-07-29T08:57:38;100088.84;;;24.32;52.82
54666;BME280;40566;50.006;36.180;2022-07-29T09:02:41;100087.50;;;24.38;52.79
54666;BME280;40566;50.006;36.180;2022-07-29T09:07:44;100090.50;;;24.44;52.26
54666;BME280;40566;50.006;36.180;2022-07-29T09:12:48;100091.47;;;24.54;52.20
54666;BME280;40566;50.006;36.180;2022-07-29T09:17:49;100090.59;;;24.65;52.22
54666;BME280;40566;50.006;36.180;2022-07-29T09:22:50;100079.03;;;24.78;51.31
54666;BME280;40566;50.006;36.180;2022-07-29T09:27:53;100093.03;;;24.89;50.72
54666;BME280;40566;50.006;36.180;2022-07-29T09:32:55;100085.31;;;24.98;50.89
54666;BME280;40566;50.006;36.180;2022-07-29T09:37:56;100092.03;;;25.02;50.53
54666;BME280;40566;50.006;36.180;2022-07-29T09:42:56;100088.16;;;25.06;49.82
54666;BME280;40566;50.006;36.180;2022-07-29T09:47:58;100087.19;;;25.07;49.84
54666;BME280;40566;50.006;36.180;2022-07-29T09:53:03;100082.22;;;25.13;49.68
54666;BME280;40566;50.006;36.180;2022-07-29T09:58:17;100084.59;;;25.49;48.76
54666;BME280;40566;50.006;36.180;2022-07-29T10:03:18;100088.06;;;25.70;47.79
54666;BME280;40566;50.006;36.180;2022-07-29T10:08:25;100082.69;;;25.61;47.66
54666;BME280;40566;50.006;36.180;2022-07-29T10:13:26;100096.59;;;25.53;48.11
54666;BME280;40566;50.006;36.180;2022-07-29T10:18:26;100084.06;;;25.55;48.34
54666;BME280;40566;50.006;36.180;2022-07-29T10:23:28;100090.06;;;25.57;47.72
54666;BME280;40566;50.006;36.180;2022-07-29T10:28:31;100085.81;;;25.66;48.06
54666;BME280;40566;50.006;36.180;2022-07-29T10:39:11;100079.03;;;25.83;46.49
54666;BME280;40566;50.006;36.180;2022-07-29T10:44:24;100081.44;;;25.86;46.35
54666;BME280;40566;50.006;36.180;2022-07-29T10:49:26;100086.03;;;25.84;46.42
54666;BME280;40566;50.006;36.180;2022-07-29T10:59:41;100072.31;;;26.00;45.62
54666;BME280;40566;50.006;36.180;2022-07-29T11:15:16;100077.41;;;26.22;44.76
54666;BME280;40566;50.006;36.180;2022-07-29T11:20:42;100075.38;;;25.95;45.27
54666;BME280;40566;50.006;36.180;2022-07-29T11:25:46;100075.63;;;25.92;45.02
54666;BME280;40566;50.006;36.180;2022-07-29T11:31:07;100071.50;;;26.09;44.38
54666;BME280;40566;50.006;36.180;2022-07-29T11:36:11;100069.88;;;26.27;44.14
54666;BME280;40566;50.006;36.180;2022-07-29T11:41:25;100061.81;;;26.39;44.13
54666;BME280;40566;50.006;36.180;2022-07-29T11:46:46;100065.28;;;26.29;44.43
54666;BME280;40566;50.006;36.180;2022-07-29T11:51:53;100066.69;;;26.34;44.56
54666;BME280;40566;50.006;36.180;2022-07-29T11:56:54;100067.94;;;26.29;44.06
54666;BME280;40566;50.006;36.180;2022-07-29T12:01:56;100061.13;;;25.96;44.36
54666;BME280;40566;50.006;36.180;2022-07-29T12:06:57;100068.72;;;26.01;44.10
54666;BME280;40566;50.006;36.180;2022-07-29T12:11:58;100064.84;;;26.15;44.09
54666;BME280;40566;50.006;36.180;2022-07-29T12:16:59;100056.50;;;26.29;43.18
54666;BME280;40566;50.006;36.180;2022-07-29T12:22:00;100064.19;;;26.42;43.20
54666;BME280;40566;50.006;36.180;2022-07-29T12:27:00;100062.97;;;27.14;41.34
54666;BME280;40566;50.006;36.180;2022-07-29T12:32:03;100052.75;;;27.29;40.97
54666;BME280;40566;50.006;36.180;2022-07-29T12:37:08;100042.47;;;27.63;40.48
54666;BME280;40566;50.006;36.180;2022-07-29T12:42:14;100041.06;;;27.69;40.11
54666;BME280;40566;50.006;36.180;2022-07-29T12:47:16;100039.75;;;27.45;40.31
54666;BME280;40566;50.006;36.180;2022-07-29T12:52:32;100052.09;;;26.98;41.17
54666;BME280;40566;50.006;36.180;2022-07-29T12:57:45;100031.84;;;26.77;41.51
54666;BME280;40566;50.006;36.180;2022-07-29T13:02:57;100033.09;;;26.83;40.87
54666;BME280;40566;50.006;36.180;2022-07-29T13:08:12;100030.44;;;26.63;41.34
54666;BME280;40566;50.006;36.180;2022-07-29T13:13:14;100030.81;;;26.39;41.46
54666;BME280;40566;50.006;36.180;2022-07-29T13:18:29;100026.63;;;26.27;41.29
54666;BME280;40566;50.006;36.180;2022-07-29T13:23:30;100028.03;;;26.41;40.95
54666;BME280;40566;50.006;36.180;2022-07-29T13:28:30;100031.25;;;26.44;40.93
54666;BME280;40566;50.006;36.180;2022-07-29T13:33:31;100031.38;;;26.33;41.25
54666;BME280;40566;50.006;36.180;2022-07-29T13:38:32;100023.81;;;26.19;41.22
54666;BME280;40566;50.006;36.180;2022-07-29T13:43:32;100029.38;;;26.16;41.62
54666;BME280;40566;50.006;36.180;2022-07-29T13:48:33;100030.16;;;25.97;41.55
54666;BME280;40566;50.006;36.180;2022-07-29T13:53:33;100037.69;;;25.91;41.71
54666;BME280;40566;50.006;36.180;2022-07-29T13:58:34;100027.72;;;25.84;41.56
54666;BME280;40566;50.006;36.180;2022-07-29T14:03:35;100026.03;;;25.83;41.28
54666;BME280;40566;50.006;36.180;2022-07-29T14:08:38;100020.88;;;25.81;41.57
54666;BME280;40566;50.006;36.180;2022-07-29T14:13:40;100027.97;;;25.81;41.22
54666;BME280;40566;50.006;36.180;2022-07-29T14:18:40;100028.38;;;25.76;41.84
54666;BME280;40566;50.006;36.180;2022-07-29T14:23:41;100033.81;;;25.75;41.70
54666;BME280;40566;50.006;36.180;2022-07-29T14:28:42;100027.81;;;25.72;41.85
54666;BME280;40566;50.006;36.180;2022-07-29T14:33:43;100026.81;;;25.64;41.87
54666;BME280;40566;50.006;36.180;2022-07-29T14:38:44;100022.41;;;25.53;41.85
54666;BME280;40566;50.006;36.180;2022-07-29T14:43:45;100019.34;;;25.48;41.79
54666;BME280;40566;50.006;36.180;2022-07-29T14:48:45;100017.22;;;25.42;42.00
54666;BME280;40566;50.006;36.180;2022-07-29T14:53:46;100018.72;;;25.35;41.91
54666;BME280;40566;50.006;36.180;2022-07-29T14:58:47;100023.69;;;25.28;41.83
54666;BME280;40566;50.006;36.180;2022-07-29T15:03:47;100026.97;;;25.20;41.93
54666;BME280;40566;50.006;36.180;2022-07-29T15:08:48;100020.50;;;25.13;42.11
54666;BME280;40566;50.006;36.180;2022-07-29T15:13:49;100020.91;;;25.08;42.08
54666;BME280;40566;50.006;36.180;2022-07-29T15:18:49;100019.72;;;25.01;41.81
54666;BME280;40566;50.006;36.180;2022-07-29T15:23:50;100025.41;;;24.97;42.09
54666;BME280;40566;50.006;36.180;2022-07-29T15:28:51;100018.50;;;24.84;42.40
54666;BME280;40566;50.006;36.180;2022-07-29T15:33:51;100021.63;;;24.78;42.12
54666;BME280;40566;50.006;36.180;2022-07-29T15:38:53;100017.72;;;24.72;42.29
54666;BME280;40566;50.006;36.180;2022-07-29T15:43:55;100028.78;;;24.66;42.26
54666;BME280;40566;50.006;36.180;2022-07-29T15:48:56;100039.75;;;24.62;42.31
54666;BME280;40566;50.006;36.180;2022-07-29T15:53:56;100044.72;;;24.55;42.60
54666;BME280;40566;50.006;36.180;2022-07-29T15:58:57;100044.47;;;24.47;42.59
54666;BME280;40566;50.006;36.180;2022-07-29T16:03:58;100048.69;;;24.38;42.83
54666;BME280;40566;50.006;36.180;2022-07-29T16:08:59;100057.13;;;24.32;42.95
54666;BME280;40566;50.006;36.180;2022-07-29T16:13:59;100049.06;;;24.22;42.98
54666;BME280;40566;50.006;36.180;2022-07-29T16:19:00;100057.63;;;24.14;43.16
54666;BME280;40566;50.006;36.180;2022-07-29T16:24:01;100059.22;;;24.06;43.18
54666;BME280;40566;50.006;36.180;2022-07-29T16:29:02;100056.19;;;23.99;43.34
54666;BME280;40566;50.006;36.180;2022-07-29T16:34:03;100049.22;;;23.87;43.42
54666;BME280;40566;50.006;36.180;2022-07-29T16:39:04;100045.53;;;23.78;43.69
54666;BME280;40566;50.006;36.180;2022-07-29T16:44:05;100050.75;;;23.67;43.77
54666;BME280;40566;50.006;36.180;2022-07-29T16:49:05;100049.91;;;23.55;44.10
54666;BME280;40566;50.006;36.180;2022-07-29T16:54:06;100047.25;;;23.44;44.37
54666;BME280;40566;50.006;36.180;2022-07-29T16:59:08;100048.09;;;23.33;44.53
54666;BME280;40566;50.006;36.180;2022-07-29T17:04:08;100038.47;;;23.21;44.91
54666;BME280;40566;50.006;36.180;2022-07-29T17:09:11;100054.38;;;23.08;45.06
54666;BME280;40566;50.006;36.180;2022-07-29T17:14:14;100052.53;;;22.97;45.47
54666;BME280;40566;50.006;36.180;2022-07-29T17:19:15;100053.66;;;22.82;45.97
54666;BME280;40566;50.006;36.180;2022-07-29T17:24:16;100056.69;;;22.64;46.56
54666;BME280;40566;50.006;36.180;2022-07-29T17:29:17;100068.03;;;22.53;46.62
54666;BME280;40566;50.006;36.180;2022-07-29T17:34:17;100069.63;;;22.43;46.97
54666;BME280;40566;50.006;36.180;2022-07-29T17:39:18;100074.13;;;22.30;47.23
54666;BME280;40566;50.006;36.180;2022-07-29T17:44:19;100085.28;;;22.21;47.45
54666;BME280;40566;50.006;36.180;2022-07-29T17:49:19;100085.19;;;22.09;47.56
54666;BME280;40566;50.006;36.180;2022-07-29T17:54:20;100093.75;;;22.00;47.91
54666;BME280;40566;50.006;36.180;2022-07-29T17:59:21;100083.22;;;21.87;48.10
54666;BME280;40566;50.006;36.180;2022-07-29T18:04:21;100090.06;;;21.77;48.47
54666;BME280;40566;50.006;36.180;2022-07-29T18:09:22;100101.31;;;21.66;48.90
54666;BME280;40566;50.006;36.180;2022-07-29T18:14:23;100100.28;;;21.56;49.22
54666;BME280;40566;50.006;36.180;2022-07-29T18:19:23;100100.06;;;21.46;49.56
54666;BME280;40566;50.006;36.180;2022-07-29T18:24:24;100096.97;;;21.39;50.00
54666;BME280;40566;50.006;36.180;2022-07-29T18:29:26;100099.28;;;21.31;49.84
54666;BME280;40566;50.006;36.180;2022-07-29T18:34:28;100091.06;;;21.23;50.16
54666;BME280;40566;50.006;36.180;2022-07-29T18:39:29;100093.38;;;21.15;50.27
54666;BME280;40566;50.006;36.180;2022-07-29T18:44:29;100088.47;;;21.09;50.51
54666;BME280;40566;50.006;36.180;2022-07-29T18:49:30;100085.44;;;21.02;50.51
54666;BME280;40566;50.006;36.180;2022-07-29T18:54:31;100079.72;;;20.95;50.90
54666;BME280;40566;50.006;36.180;2022-07-29T18:59:31;100084.44;;;20.90;51.12
54666;BME280;40566;50.006;36.180;2022-07-29T19:04:33;100092.72;;;20.84;51.05
54666;BME280;40566;50.006;36.180;2022-07-29T19:09:34;100086.81;;;20.80;51.29
54666;BME280;40566;50.006;36.180;2022-07-29T19:14:37;100089.03;;;20.74;51.43
54666;BME280;40566;50.006;36.180;2022-07-29T19:19:38;100096.44;;;20.67;51.73
54666;BME280;40566;50.006;36.180;2022-07-29T19:24:39;100091.66;;;20.59;51.89
54666;BME280;40566;50.006;36.180;2022-07-29T19:29:40;100100.66;;;20.55;51.87
54666;BME280;40566;50.006;36.180;2022-07-29T19:34:41;100097.69;;;20.47;52.18
54666;BME280;40566;50.006;36.180;2022-07-29T19:40:02;100096.50;;;20.38;52.38
54666;BME280;40566;50.006;36.180;2022-07-29T19:45:03;100102.03;;;20.34;52.35
54666;BME280;40566;50.006;36.180;2022-07-29T19:50:04;100100.91;;;20.24;52.63
54666;BME280;40566;50.006;36.180;2022-07-29T19:55:05;100098.50;;;20.20;52.79
54666;BME280;40566;50.006;36.180;2022-07-29T20:00:07;100104.97;;;20.15;52.71
54666;BME280;40566;50.006;36.180;2022-07-29T20:05:08;100107.78;;;20.12;53.08
54666;BME280;40566;50.006;36.180;2022-07-29T20:10:09;100113.31;;;20.07;53.44
54666;BME280;40566;50.006;36.180;2022-07-29T20:15:10;100110.22;;;20.00;53.20
54666;BME280;40566;50.006;36.180;2022-07-29T20:20:12;100122.78;;;19.95;53.52
54666;BME280;40566;50.006;36.180;2022-07-29T20:25:13;100118.66;;;19.91;53.43
54666;BME280;40566;50.006;36.180;2022-07-29T20:30:14;100120.72;;;19.86;53.52
54666;BME280;40566;50.006;36.180;2022-07-29T20:35:15;100123.53;;;19.83;53.79
54666;BME280;40566;50.006;36.180;2022-07-29T20:40:16;100124.09;;;19.74;54.04
54666;BME280;40566;50.006;36.180;2022-07-29T20:45:17;100128.72;;;19.69;54.40
54666;BME280;40566;50.006;36.180;2022-07-29T20:50:19;100126.56;;;19.61;54.53
54666;BME280;40566;50.006;36.180;2022-07-29T20:55:22;100126.91;;;19.55;54.52
54666;BME280;40566;50.006;36.180;2022-07-29T21:00:22;100134.22;;;19.50;54.78
54666;BME280;40566;50.006;36.180;2022-07-29T21:05:23;100133.63;;;19.45;54.95
54666;BME280;40566;50.006;36.180;2022-07-29T21:10:24;100129.44;;;19.42;54.78
54666;BME280;40566;50.006;36.180;2022-07-29T21:15:25;100124.97;;;19.28;55.32
54666;BME280;40566;50.006;36.180;2022-07-29T21:20:28;100121.59;;;19.26;55.44
54666;BME280;40566;50.006;36.180;2022-07-29T21:25:28;100120.94;;;19.22;55.49
54666;BME280;40566;50.006;36.180;2022-07-29T21:30:29;100124.66;;;19.18;55.49
54666;BME280;40566;50.006;36.180;2022-07-29T21:35:30;100119.94;;;19.09;55.60
54666;BME280;40566;50.006;36.180;2022-07-29T21:40:30;100128.06;;;19.05;56.10
54666;BME280;40566;50.006;36.180;2022-07-29T21:45:31;100131.06;;;18.98;56.21
54666;BME280;40566;50.006;36.180;2022-07-29T21:50:32;100131.41;;;18.92;56.26
54666;BME280;40566;50.006;36.180;2022-07-29T21:55:33;100130.81;;;18.87;56.47
54666;BME280;40566;50.006;36.180;2022-07-29T22:00:34;100124.13;;;18.81;56.48
54666;BME280;40566;50.006;36.180;2022-07-29T22:05:35;100128.53;;;18.81;56.56
54666;BME280;40566;50.006;36.180;2022-07-29T22:10:35;100130.50;;;18.76;56.95
54666;BME280;40566;50.006;36.180;2022-07-29T22:15:36;100136.84;;;18.72;56.83
54666;BME280;40566;50.006;36.180;2022-07-29T22:20:36;100124.69;;;18.71;57.11
54666;BME280;40566;50.006;36.180;2022-07-29T22:25:37;100130.28;;;18.65;57.36
54666;BME280;40566;50.006;36.180;2022-07-29T22:30:38;100127.91;;;18.60;57.74
54666;BME280;40566;50.006;36.180;2022-07-29T22:35:38;100129.59;;;18.61;57.31
54666;BME280;40566;50.006;36.180;2022-07-29T22:40:39;100132.50;;;18.56;57.49
54666;BME280;40566;50.006;36.180;2022-07-29T22:45:40;100125.81;;;18.51;57.62
54666;BME280;40566;50.006;36.180;2022-07-29T22:50:40;100122.84;;;18.41;58.23
54666;BME280;40566;50.006;36.180;2022-07-29T22:55:41;100118.78;;;18.35;58.32
54666;BME280;40566;50.006;36.180;2022-07-29T23:00:41;100124.16;;;18.32;58.23
54666;BME280;40566;50.006;36.180;2022-07-29T23:05:42;100115.53;;;18.30;58.38
54666;BME280;40566;50.006;36.180;2022-07-29T23:10:43;100112.41;;;18.23;58.64
54666;BME280;40566;50.006;36.180;2022-07-29T23:15:43;100119.59;;;18.20;58.76
54666;BME280;40566;50.006;36.180;2022-07-29T23:20:44;100120.63;;;18.17;58.81
54666;BME280;40566;50.006;36.180;2022-07-29T23:25:45;100125.09;;;18.15;58.82
54666;BME280;40566;50.006;36.180;2022-07-29T23:30:45;100121.09;;;18.08;59.03
54666;BME280;40566;50.006;36.180;2022-07-29T23:35:46;100119.75;;;18.01;59.35
54666;BME280;40566;50.006;36.180;2022-07-29T23:40:48;100122.50;;;17.98;59.40
54666;BME280;40566;50.006;36.180;2022-07-29T23:45:49;100120.28;;;17.90;59.57
54666;BME280;40566;50.006;36.180;2022-07-29T23:50:50;100128.56;;;17.81;59.47
54666;BME280;40566;50.006;36.180;2022-07-29T23:55:50;100133.44;;;17.71;60.01
